Time;durP1;ratioP1;P1;durP2;ratioP2;P2;SDS_P1;SDS_P2;PMS_P1;PMS_P2;Temp;Humidity;BMP_temperature;BMP_pressure;BME280_temperature;BME280_humidity;BME280_pressure;Samples;Min_cycle;Max_cycle;Signal;HPM_P1;HPM_P2
2023/09/11 00:01:19;;;;;;;16.42;11.10;;;;;;;20.64;100.00;101368.00;5189997;28;20036;-79
2023/09/11 00:03:50;;;;;;;13.95;8.73;;;;;;;20.61;100.00;101375.78;5192739;28;20029;-79
2023/09/11 00:06:20;;;;;;;10.82;7.53;;;;;;;20.59;100.00;101369.75;5196346;28;20079;-79
2023/09/11 00:08:52;;;;;;;9.75;6.38;;;;;;;20.55;100.00;101368.50;5195277;28;20021;-79
2023/09/11 00:11:23;;;;;;;7.30;5.68;;;;;;;20.50;100.00;101369.16;5186489;28;20030;-79
2023/09/11 00:13:54;;;;;;;9.43;5.75;;;;;;;20.48;100.00;101367.69;5190254;28;20042;-79
2023/09/11 00:16:24;;;;;;;10.73;5.97;;;;;;;20.42;100.00;101364.75;5194802;28;20743;-79
2023/09/11 00:18:56;;;;;;;16.05;9.20;;;;;;;20.40;100.00;101364.16;5193450;28;20041;-79
2023/09/11 00:21:26;;;;;;;7.28;6.32;;;;;;;20.40;100.00;101358.69;5194906;28;20036;-80
2023/09/11 00:23:57;;;;;;;12.13;8.98;;;;;;;20.38;100.00;101358.09;5195294;28;20021;-79
2023/09/11 00:26:27;;;;;;;13.63;9.68;;;;;;;20.36;100.00;101353.91;5192407;28;20026;-82
2023/09/11 00:28:57;;;;;;;12.70;9.25;;;;;;;20.34;100.00;101353.28;5198552;28;20028;-81
2023/09/11 00:31:28;;;;;;;13.57;9.98;;;;;;;20.32;100.00;101355.38;5194828;28;20581;-81
2023/09/11 00:33:59;;;;;;;18.25;10.55;;;;;;;20.27;100.00;101350.59;5198753;28;20029;-81
2023/09/11 00:36:29;;;;;;;14.15;9.98;;;;;;;20.23;100.00;101343.94;5196068;28;20048;-81
2023/09/11 00:38:59;;;;;;;13.55;9.20;;;;;;;20.20;100.00;101344.34;5202792;28;20084;-80
2023/09/11 00:41:30;;;;;;;16.10;9.43;;;;;;;20.17;100.00;101339.31;5194434;28;20024;-79
2023/09/11 00:44:00;;;;;;;19.95;12.27;;;;;;;20.16;100.00;101334.94;5200528;28;20398;-79
2023/09/11 00:46:31;;;;;;;21.27;11.73;;;;;;;20.16;100.00;101337.66;5197492;28;20083;-79
2023/09/11 00:49:01;;;;;;;15.88;11.35;;;;;;;20.15;100.00;101333.28;5200003;28;20021;-79
2023/09/11 00:51:33;;;;;;;22.38;11.88;;;;;;;20.12;100.00;101334.53;5193342;28;20045;-80
2023/09/11 00:54:04;;;;;;;17.58;11.48;;;;;;;20.09;100.00;101329.53;5200867;28;20040;-80
2023/09/11 00:56:35;;;;;;;24.35;11.13;;;;;;;20.07;100.00;101328.06;5195381;28;20408;-79
2023/09/11 00:59:06;;;;;;;14.75;10.35;;;;;;;20.06;100.00;101320.97;5201920;28;20034;-79
2023/09/11 01:01:36;;;;;;;13.48;6.93;;;;;;;20.04;100.00;101323.91;5196757;28;20050;-79
2023/09/11 01:04:07;;;;;;;14.30;9.73;;;;;;;19.99;100.00;101315.56;5198736;28;20029;-79
2023/09/11 01:06:38;;;;;;;11.95;8.32;;;;;;;19.97;100.00;101317.63;5198606;28;20029;-79
2023/09/11 01:09:08;;;;;;;11.70;8.02;;;;;;;19.93;100.00;101313.69;5197540;28;20033;-79
2023/09/11 01:11:50;;;;;;;18.25;8.95;;;;;;;19.95;100.00;101317.03;5196701;28;20018;-80
2023/09/11 01:14:20;;;;;;;16.48;10.25;;;;;;;19.97;100.00;101308.63;5193641;28;20024;-80
2023/09/11 01:17:17;;;;;;;23.95;13.32;;;;;;;19.94;100.00;101309.09;5198468;28;21885;-80
2023/09/11 01:20:16;;;;;;;18.42;11.93;;;;;;;19.94;100.00;101314.53;5196875;28;20025;-79
2023/09/11 01:23:26;;;;;;;22.05;9.43;;;;;;;19.92;100.00;101310.13;5191576;28;20021;-79
2023/09/11 01:26:19;;;;;;;;;;;;;;;19.89;100.00;101315.19;5194733;28;20048;-79
2023/09/11 01:29:25;;;;;;;11.43;8.07;;;;;;;19.88;100.00;101303.47;5194470;28;20395;-79
2023/09/11 01:32:04;;;;;;;17.02;9.80;;;;;;;19.87;100.00;101303.66;5191222;28;20017;-79
2023/09/11 01:34:35;;;;;;;14.27;8.32;;;;;;;19.84;100.00;101302.22;5197733;28;20472;-79
2023/09/11 01:37:06;;;;;;;18.77;10.55;;;;;;;19.81;100.00;101297.19;5200441;28;20036;-79
2023/09/11 01:39:36;;;;;;;15.30;8.77;;;;;;;19.76;100.00;101299.72;5195381;28;20026;-80
2023/09/11 01:42:11;;;;;;;14.95;10.05;;;;;;;19.71;100.00;101301.44;5201198;28;20021;-79
2023/09/11 01:44:46;;;;;;;17.52;9.77;;;;;;;19.68;100.00;101302.72;5195854;28;20053;-79
2023/09/11 01:47:21;;;;;;;17.85;10.23;;;;;;;19.66;100.00;101307.50;5198393;28;20025;-79
2023/09/11 01:49:53;;;;;;;16.60;10.13;;;;;;;19.63;100.00;101305.25;5196503;28;20487;-80
2023/09/11 01:52:25;;;;;;;16.42;10.48;;;;;;;19.60;100.00;101303.78;5193601;28;20040;-79
2023/09/11 01:54:57;;;;;;;16.05;10.43;;;;;;;19.56;100.00;101304.38;5198287;28;20120;-79
2023/09/11 01:57:28;;;;;;;17.00;11.23;;;;;;;19.51;100.00;101301.47;5195184;28;20061;-78
2023/09/11 02:00:08;;;;;;;23.52;11.85;;;;;;;19.49;100.00;101306.28;5196001;28;20048;-79
2023/09/11 02:02:39;;;;;;;17.75;10.75;;;;;;;19.47;100.00;101314.66;5197017;28;20091;-79
2023/09/11 02:05:10;;;;;;;21.30;11.32;;;;;;;19.54;100.00;101330.97;5198984;28;20013;-78
2023/09/11 02:07:40;;;;;;;17.98;11.50;;;;;;;19.55;100.00;101328.03;5192882;28;20034;-79
2023/09/11 02:10:11;;;;;;;19.05;12.68;;;;;;;19.56;100.00;101317.97;5189005;28;20064;-79
2023/09/11 02:12:42;;;;;;;20.63;12.27;;;;;;;19.50;100.00;101327.00;5193873;28;20017;-79
2023/09/11 02:15:12;;;;;;;23.63;12.20;;;;;;;19.44;100.00;101317.81;5199984;28;20018;-79
2023/09/11 02:17:43;;;;;;;18.50;11.38;;;;;;;19.44;100.00;101314.25;5195596;28;20018;-79
2023/09/11 02:20:14;;;;;;;18.30;12.13;;;;;;;19.41;100.00;101327.22;5194984;28;20044;-79
2023/09/11 02:22:45;;;;;;;19.27;12.00;;;;;;;19.38;100.00;101321.41;5197382;28;20468;-79
2023/09/11 02:25:15;;;;;;;20.75;12.45;;;;;;;19.33;100.00;101318.47;5197789;28;20557;-79
2023/09/11 02:27:46;;;;;;;19.05;12.50;;;;;;;19.30;100.00;101322.44;5196573;28;20025;-79
2023/09/11 02:30:17;;;;;;;17.45;10.65;;;;;;;19.28;100.00;101310.97;5197245;28;20507;-79
2023/09/11 02:32:47;;;;;;;18.75;9.68;;;;;;;19.21;100.00;101317.44;5194724;28;20022;-79
2023/09/11 02:35:18;;;;;;;16.95;11.57;;;;;;;19.14;100.00;101318.28;5197329;28;20013;-79
2023/09/11 02:37:48;;;;;;;22.58;10.80;;;;;;;19.10;100.00;101316.22;5196134;28;20418;-79
2023/09/11 02:40:18;;;;;;;16.85;11.02;;;;;;;19.07;100.00;101305.72;5196127;28;20021;-79
2023/09/11 02:42:49;;;;;;;20.13;10.68;;;;;;;18.98;100.00;101299.69;5199772;28;20029;-79
2023/09/11 02:45:19;;;;;;;17.13;11.00;;;;;;;18.94;100.00;101300.34;5197621;28;20071;-79
2023/09/11 02:47:50;;;;;;;17.77;11.27;;;;;;;18.91;100.00;101300.75;5197482;28;20660;-79
2023/09/11 02:50:23;;;;;;;13.43;9.93;;;;;;;18.82;100.00;101298.22;5196863;28;20067;-79
2023/09/11 02:52:53;;;;;;;20.00;11.10;;;;;;;18.75;100.00;101299.28;5192326;28;20071;-79
2023/09/11 02:55:24;;;;;;;23.23;11.57;;;;;;;18.72;100.00;101297.81;5196430;28;20445;-79
2023/09/11 02:57:54;;;;;;;20.45;11.82;;;;;;;18.67;100.00;101294.84;5197230;28;20323;-79
2023/09/11 03:00:24;;;;;;;19.25;11.55;;;;;;;18.64;100.00;101295.28;5188525;28;20026;-79
2023/09/11 03:02:56;;;;;;;18.90;11.85;;;;;;;18.61;100.00;101290.25;5174260;28;20044;-79
2023/09/11 03:05:27;;;;;;;18.50;12.00;;;;;;;18.63;100.00;101293.63;5192007;28;20029;-79
2023/09/11 03:08:00;;;;;;;15.82;10.77;;;;;;;18.63;100.00;101285.47;5194135;28;20423;-79
2023/09/11 03:10:31;;;;;;;17.58;11.80;;;;;;;18.67;100.00;101283.97;5187837;28;20399;-79
2023/09/11 03:13:03;;;;;;;18.05;12.13;;;;;;;18.68;100.00;101280.28;5189615;28;20026;-79
2023/09/11 03:15:34;;;;;;;19.80;12.23;;;;;;;18.67;100.00;101266.84;5199195;28;20035;-79
2023/09/11 03:18:05;;;;;;;18.42;11.02;;;;;;;18.68;100.00;101271.25;5196722;28;20053;-79
2023/09/11 03:20:36;;;;;;;18.92;12.07;;;;;;;18.66;100.00;101267.88;5194803;28;20024;-80
2023/09/11 03:23:07;;;;;;;15.10;11.05;;;;;;;18.64;100.00;101263.50;5199411;28;20021;-80
2023/09/11 03:25:45;;;;;;;23.52;12.13;;;;;;;18.62;100.00;101268.34;5191979;28;20417;-79
2023/09/11 03:28:16;;;;;;;24.55;11.75;;;;;;;18.62;100.00;101260.19;5186055;28;20117;-79
2023/09/11 03:30:46;;;;;;;16.38;11.02;;;;;;;18.63;100.00;101269.16;5196671;28;20108;-79
2023/09/11 03:33:17;;;;;;;23.02;12.65;;;;;;;18.62;100.00;101265.63;5194697;28;20018;-79
2023/09/11 03:35:47;;;;;;;20.58;12.38;;;;;;;18.64;100.00;101257.25;5187772;28;20197;-79
2023/09/11 03:38:18;;;;;;;22.15;11.90;;;;;;;18.63;100.00;101264.56;5191863;28;20388;-80
2023/09/11 03:40:48;;;;;;;20.27;11.70;;;;;;;18.61;100.00;101261.19;5196276;28;20030;-79
2023/09/11 03:43:19;;;;;;;22.83;12.30;;;;;;;18.59;100.00;101260.59;5200358;28;20541;-79
2023/09/11 03:45:49;;;;;;;21.20;11.15;;;;;;;18.59;100.00;101251.59;5197193;28;20101;-79
2023/09/11 03:48:20;;;;;;;20.35;12.15;;;;;;;18.57;100.00;101248.25;5186404;28;20494;-79
2023/09/11 03:50:50;;;;;;;16.75;10.45;;;;;;;18.60;100.00;101250.53;5201134;28;20029;-80
2023/09/11 03:53:21;;;;;;;21.98;11.38;;;;;;;18.61;100.00;101254.94;5197569;28;20100;-80
2023/09/11 03:55:51;;;;;;;16.13;10.85;;;;;;;18.60;100.00;101253.25;5199046;28;20113;-79
2023/09/11 03:58:22;;;;;;;17.42;11.35;;;;;;;18.58;100.00;101250.75;5193071;28;20037;-79
2023/09/11 04:00:54;;;;;;;19.50;11.70;;;;;;;18.60;100.00;101254.09;5190126;28;20025;-79
2023/09/11 04:03:24;;;;;;;17.27;11.50;;;;;;;18.62;100.00;101249.31;5198463;28;20104;-80
2023/09/11 04:05:55;;;;;;;18.92;12.13;;;;;;;18.59;100.00;101252.44;5198833;28;20045;-79
2023/09/11 04:08:25;;;;;;;21.15;11.85;;;;;;;18.52;100.00;101248.84;5197294;28;20013;-80
2023/09/11 04:10:56;;;;;;;20.60;11.27;;;;;;;18.47;100.00;101253.25;5196582;28;20396;-80
2023/09/11 04:13:26;;;;;;;18.40;10.98;;;;;;;18.43;100.00;101247.41;5195143;28;20030;-80
2023/09/11 04:15:57;;;;;;;18.60;11.40;;;;;;;18.42;100.00;101248.44;5200002;28;20014;-81
2023/09/11 04:18:27;;;;;;;19.40;12.05;;;;;;;18.38;100.00;101252.66;5199997;28;20100;-82
2023/09/11 04:21:05;;;;;;;20.83;12.23;;;;;;;18.33;100.00;101250.53;5194768;28;20080;-81
2023/09/11 04:23:35;;;;;;;20.40;12.05;;;;;;;18.27;100.00;101259.53;5195550;28;20029;-81
2023/09/11 04:26:06;;;;;;;22.25;12.15;;;;;;;18.24;100.00;101262.66;5197566;28;20510;-81
2023/09/11 04:28:37;;;;;;;20.00;11.40;;;;;;;18.21;100.00;101259.50;5195666;28;20044;-81
2023/09/11 04:31:08;;;;;;;22.58;12.80;;;;;;;18.19;100.00;101265.16;5195446;28;20014;-81
2023/09/11 04:33:38;;;;;;;21.67;12.77;;;;;;;18.20;100.00;101265.97;5190704;28;20104;-81
2023/09/11 04:36:09;;;;;;;20.10;12.10;;;;;;;18.22;100.00;101263.88;5203218;28;20029;-79
2023/09/11 04:38:39;;;;;;;20.00;12.43;;;;;;;18.25;100.00;101260.75;5186996;28;20543;-79
2023/09/11 04:41:10;;;;;;;21.83;12.85;;;;;;;18.28;100.00;101258.47;5195465;28;20021;-79
2023/09/11 04:43:40;;;;;;;23.55;12.68;;;;;;;18.29;100.00;101262.03;5200890;28;20065;-79
2023/09/11 04:46:11;;;;;;;19.08;11.85;;;;;;;18.29;100.00;101254.72;5189773;28;20025;-79
2023/09/11 04:48:42;;;;;;;21.10;12.75;;;;;;;18.28;100.00;101258.47;5193301;28;20464;-79
2023/09/11 04:51:12;;;;;;;17.10;11.27;;;;;;;18.26;100.00;101260.53;5192873;28;20145;-79
2023/09/11 04:53:43;;;;;;;22.55;11.30;;;;;;;18.24;100.00;101259.09;5187606;28;20017;-79
2023/09/11 04:56:14;;;;;;;17.48;11.32;;;;;;;18.21;100.00;101259.50;5199112;28;20187;-79
2023/09/11 04:58:44;;;;;;;18.92;12.18;;;;;;;18.20;100.00;101265.97;5191802;28;20476;-79
2023/09/11 05:01:15;;;;;;;22.80;11.75;;;;;;;18.19;100.00;101272.47;5193272;28;20072;-79
2023/09/11 05:03:45;;;;;;;18.95;11.27;;;;;;;18.21;100.00;101273.91;5194412;28;20021;-79
2023/09/11 05:06:16;;;;;;;22.02;12.80;;;;;;;18.20;100.00;101276.84;5190759;28;20097;-79
2023/09/11 05:08:47;;;;;;;22.20;12.75;;;;;;;18.16;100.00;101270.97;5190039;28;20018;-79
2023/09/11 05:11:17;;;;;;;23.77;11.60;;;;;;;18.11;100.00;101276.19;5196592;28;20396;-80
2023/09/11 05:13:48;;;;;;;20.30;11.27;;;;;;;18.09;100.00;101276.41;5193146;28;20013;-80
2023/09/11 05:16:18;;;;;;;22.23;12.73;;;;;;;18.10;100.00;101269.94;5198654;28;20415;-81
2023/09/11 05:18:49;;;;;;;24.98;12.63;;;;;;;18.16;100.00;101270.97;5190362;28;20053;-80
2023/09/11 05:21:19;;;;;;;21.08;10.85;;;;;;;18.15;100.00;101272.03;5186859;28;20013;-80
2023/09/11 05:23:50;;;;;;;20.73;12.57;;;;;;;18.17;100.00;101279.94;5198136;28;20033;-80
2023/09/11 05:26:21;;;;;;;19.45;13.13;;;;;;;18.20;100.00;101280.38;5198431;28;20028;-80
2023/09/11 05:28:51;;;;;;;26.60;12.23;;;;;;;18.23;100.00;101277.28;5197492;28;20105;-80
2023/09/11 05:31:22;;;;;;;19.45;12.23;;;;;;;18.26;100.00;101276.00;5191765;28;20453;-80
2023/09/11 05:33:52;;;;;;;21.80;12.98;;;;;;;18.30;100.00;101277.28;5187759;28;20029;-80
2023/09/11 05:36:23;;;;;;;19.17;11.02;;;;;;;18.35;100.00;101269.34;5193701;28;20026;-80
2023/09/11 05:38:53;;;;;;;24.40;12.73;;;;;;;18.41;100.00;101273.94;5192319;28;20053;-79
2023/09/11 05:41:25;;;;;;;18.50;12.00;;;;;;;18.45;100.00;101277.91;5192255;28;20690;-79
2023/09/11 05:43:56;;;;;;;21.02;11.80;;;;;;;18.51;100.00;101284.41;5199993;28;20541;-80
2023/09/11 05:46:26;;;;;;;21.08;12.25;;;;;;;18.57;100.00;101287.09;5192883;28;20021;-80
2023/09/11 05:48:57;;;;;;;17.35;11.60;;;;;;;18.64;100.00;101279.81;5200055;28;20018;-80
2023/09/11 05:51:27;;;;;;;24.08;12.68;;;;;;;18.77;100.00;101279.00;5189168;28;20050;-79
2023/09/11 05:53:57;;;;;;;20.92;12.57;;;;;;;18.87;100.00;101290.28;5191506;28;20031;-80
2023/09/11 05:56:28;;;;;;;24.77;13.02;;;;;;;18.97;100.00;101295.28;5187438;28;20022;-80
2023/09/11 05:58:59;;;;;;;20.38;12.15;;;;;;;19.04;100.00;101298.03;5186741;28;20018;-81
2023/09/11 06:01:29;;;;;;;20.42;11.70;;;;;;;19.17;100.00;101300.69;5187540;28;20541;-80
2023/09/11 06:04:00;;;;;;;25.17;13.00;;;;;;;19.27;100.00;101303.00;5198714;28;20030;-79
2023/09/11 06:06:30;;;;;;;20.80;11.93;;;;;;;19.42;100.00;101298.97;5187229;28;20026;-80
2023/09/11 06:09:01;;;;;;;19.55;11.45;;;;;;;19.55;100.00;101298.09;5189037;28;20048;-80
2023/09/11 06:11:31;;;;;;;18.58;11.40;;;;;;;19.67;100.00;101304.56;5197336;28;20476;-80
2023/09/11 06:14:04;;;;;;;25.42;12.25;;;;;;;19.86;100.00;101307.44;5200693;28;20033;-79
2023/09/11 06:16:34;;;;;;;20.52;10.80;;;;;;;20.21;100.00;101313.31;5193563;28;20053;-79
2023/09/11 06:19:05;;;;;;;20.33;11.30;;;;;;;20.65;100.00;101308.88;5199549;28;20060;-80
2023/09/11 06:21:35;;;;;;;19.52;9.73;;;;;;;20.90;100.00;101308.88;5195712;28;20027;-80
2023/09/11 06:24:06;;;;;;;24.40;10.02;;;;;;;21.15;100.00;101311.59;5195723;28;20034;-80
2023/09/11 06:26:36;;;;;;;22.55;10.07;;;;;;;21.35;100.00;101309.53;5186329;28;20037;-80
2023/09/11 06:29:07;;;;;;;26.13;11.20;;;;;;;21.73;100.00;101316.63;5199131;28;20374;-80
2023/09/11 06:31:37;;;;;;;18.38;10.20;;;;;;;22.29;100.00;101317.38;5194653;28;20022;-80
2023/09/11 06:34:08;;;;;;;19.83;9.80;;;;;;;22.74;100.00;101315.88;5197017;28;20026;-80
2023/09/11 06:36:38;;;;;;;17.80;9.43;;;;;;;23.21;100.00;101307.69;5196745;28;20026;-80
2023/09/11 06:39:09;;;;;;;24.58;9.52;;;;;;;23.57;100.00;101302.16;5198481;28;20047;-80
2023/09/11 06:41:40;;;;;;;18.73;9.93;;;;;;;23.83;100.00;101304.38;5185900;28;20029;-79
2023/09/11 06:44:10;;;;;;;21.30;9.70;;;;;;;24.11;100.00;101311.81;5187683;28;20487;-81
2023/09/11 06:46:41;;;;;;;20.42;9.75;;;;;;;24.41;100.00;101311.56;5198587;28;20036;-80
2023/09/11 06:49:12;;;;;;;24.73;10.88;;;;;;;24.65;100.00;101311.41;5191351;28;20056;-81
2023/09/11 06:51:42;;;;;;;27.23;10.20;;;;;;;24.85;100.00;101306.28;5193435;28;20032;-81
2023/09/11 06:54:13;;;;;;;28.38;10.13;;;;;;;25.06;100.00;101315.66;5194813;28;20387;-81
2023/09/11 06:56:44;;;;;;;22.15;9.77;;;;;;;25.33;100.00;101304.00;5193338;28;20104;-81
2023/09/11 06:59:14;;;;;;;23.60;9.70;;;;;;;25.45;100.00;101300.06;5191807;28;20037;-81
2023/09/11 07:01:45;;;;;;;18.77;10.40;;;;;;;25.46;100.00;101293.47;5188644;28;20026;-81
2023/09/11 07:04:16;;;;;;;19.65;10.15;;;;;;;25.63;100.00;101284.31;5197986;28;20028;-81
2023/09/11 07:06:48;;;;;;;21.40;9.60;;;;;;;25.85;100.00;101292.59;5188797;28;20153;-81
2023/09/11 07:09:19;;;;;;;22.50;9.82;;;;;;;26.08;100.00;101303.28;5190074;28;20021;-81
2023/09/11 07:11:50;;;;;;;29.10;12.27;;;;;;;26.03;100.00;101306.81;5184659;28;20079;-81
2023/09/11 07:14:22;;;;;;;20.33;10.50;;;;;;;26.13;100.00;101303.34;5197784;28;20506;-81
2023/09/11 07:16:55;;;;;;;18.80;10.57;;;;;;;26.19;100.00;101299.56;5193848;28;20064;-81
2023/09/11 07:19:25;;;;;;;21.10;10.48;;;;;;;26.43;100.00;101304.78;5197359;28;20070;-81
2023/09/11 07:21:56;;;;;;;17.98;9.55;;;;;;;26.78;100.00;101302.31;5194956;28;20017;-81
2023/09/11 07:24:26;;;;;;;20.38;9.65;;;;;;;26.81;100.00;101320.25;5195353;28;20025;-81
2023/09/11 07:26:57;;;;;;;26.23;10.48;;;;;;;26.81;100.00;101318.34;5189863;28;20030;-81
2023/09/11 07:29:27;;;;;;;21.40;9.75;;;;;;;26.78;100.00;101327.09;5193477;28;20395;-81
2023/09/11 07:31:59;;;;;;;17.85;9.52;;;;;;;26.98;100.00;101315.41;5191963;28;20032;-81
2023/09/11 07:34:29;;;;;;;24.58;10.90;;;;;;;26.96;100.00;101314.00;5184808;28;20030;-81
2023/09/11 07:37:00;;;;;;;24.05;10.63;;;;;;;27.16;100.00;101314.22;5193579;28;20025;-82
2023/09/11 07:39:30;;;;;;;22.45;10.02;;;;;;;27.52;100.00;101308.91;5201101;28;20029;-82
2023/09/11 07:42:01;;;;;;;21.15;10.52;;;;;;;27.55;100.00;101311.09;5190930;28;20022;-81
2023/09/11 07:44:31;;;;;;;20.25;11.43;;;;;;;27.48;100.00;101307.75;5194951;28;20024;-81
2023/09/11 07:47:02;;;;;;;15.90;9.25;;;;;;;27.92;100.00;101311.00;5198777;28;20228;-82
2023/09/11 07:49:32;;;;;;;16.48;8.88;;;;;;;28.20;100.00;101317.13;5197936;28;20105;-82
2023/09/11 07:52:03;;;;;;;15.60;10.55;;;;;;;27.97;100.00;101324.81;5195619;28;20044;-82
2023/09/11 07:54:33;;;;;;;18.70;10.20;;;;;;;27.82;100.00;101319.25;5195281;28;20029;-81
2023/09/11 07:57:04;;;;;;;19.70;10.38;;;;;;;27.75;100.00;101322.25;5202164;28;20018;-82
2023/09/11 07:59:35;;;;;;;15.65;9.43;;;;;;;27.84;100.00;101325.31;5191717;28;20105;-82
2023/09/11 08:02:05;;;;;;;18.55;10.15;;;;;;;27.95;100.00;101329.75;5199952;28;20033;-82
2023/09/11 08:04:36;;;;;;;17.15;8.55;;;;;;;28.38;100.00;101324.94;5190764;28;20022;-82
2023/09/11 08:07:07;;;;;;;16.20;9.20;;;;;;;28.49;100.00;101337.63;5206391;28;20029;-80
2023/09/11 08:09:37;;;;;;;15.98;7.97;;;;;;;28.62;100.00;101326.06;5196345;28;20101;-81
2023/09/11 08:12:08;;;;;;;17.48;9.10;;;;;;;29.11;100.00;101324.66;5197239;28;20484;-80
2023/09/11 08:14:39;;;;;;;16.30;8.20;;;;;;;29.12;100.00;101318.88;5192469;28;20112;-80
2023/09/11 08:17:10;;;;;;;16.27;7.90;;;;;;;28.94;100.00;101327.75;5195297;28;20081;-81
2023/09/11 08:19:41;;;;;;;13.80;7.63;;;;;;;29.00;100.00;101323.03;5203656;28;20057;-81
2023/09/11 08:22:11;;;;;;;15.07;8.32;;;;;;;29.56;100.00;101329.28;5192157;28;20532;-81
2023/09/11 08:24:42;;;;;;;18.08;8.10;;;;;;;29.32;100.00;101322.69;5202580;28;20117;-81
2023/09/11 08:27:12;;;;;;;14.13;9.45;;;;;;;29.17;100.00;101329.09;5197991;28;20018;-81
2023/09/11 08:29:43;;;;;;;20.45;7.93;;;;;;;29.43;100.00;101324.34;5192489;28;20032;-82
2023/09/11 08:32:13;;;;;;;14.15;7.28;;;;;;;29.57;100.00;101330.97;5193355;28;20391;-81
2023/09/11 08:34:43;;;;;;;15.02;8.65;;;;;;;29.47;100.00;101330.97;5207718;28;20094;-81
2023/09/11 08:37:14;;;;;;;11.75;7.38;;;;;;;29.34;100.00;101331.53;5208256;28;20036;-81
2023/09/11 08:39:44;;;;;;;26.00;8.85;;;;;;;29.28;100.00;101344.53;5196254;28;20025;-81
2023/09/11 08:42:15;;;;;;;14.88;7.50;;;;;;;29.64;100.00;101348.06;5199249;28;20112;-81
2023/09/11 08:44:45;;;;;;;20.63;8.32;;;;;;;29.46;100.00;101343.09;5194715;28;20399;-81
2023/09/11 08:47:19;;;;;;;14.45;6.93;;;;;;;29.82;100.00;101340.22;5202347;28;20021;-81
2023/09/11 08:49:52;;;;;;;16.25;7.05;;;;;;;30.09;100.00;101343.44;5202982;28;20392;-81
2023/09/11 08:52:23;;;;;;;13.93;7.65;;;;;;;30.32;100.00;101352.16;5195737;28;20064;-81
2023/09/11 08:54:58;;;;;;;15.25;7.85;;;;;;;30.03;100.00;101344.56;5196824;28;20036;-81
2023/09/11 08:57:32;;;;;;;15.98;7.57;;;;;;;30.33;100.00;101353.84;5195771;28;20037;-81
2023/09/11 09:00:11;;;;;;;15.13;7.32;;;;;;;30.32;100.00;101344.69;5203873;28;20075;-81
2023/09/11 09:02:42;;;;;;;14.68;7.72;;;;;;;30.32;100.00;101347.47;5192354;28;20112;-81
2023/09/11 09:05:15;;;;;;;11.88;7.15;;;;;;;30.46;100.00;101350.41;5199835;28;20029;-81
2023/09/11 09:07:47;;;;;;;14.50;6.15;;;;;;;30.68;100.00;101356.34;5193077;28;20036;-81
2023/09/11 09:10:18;;;;;;;13.57;7.03;;;;;;;31.11;100.00;101353.78;5191665;28;20092;-81
2023/09/11 09:12:50;;;;;;;22.27;7.53;;;;;;;31.09;100.00;101361.56;5199130;28;20029;-81
2023/09/11 09:15:21;;;;;;;10.13;7.30;;;;;;;30.85;100.00;101360.69;5198054;28;20112;-81
2023/09/11 09:17:51;;;;;;;20.30;6.78;;;;;;;30.75;100.00;101352.47;5202083;28;20500;-81
2023/09/11 09:20:22;;;;;;;13.32;7.72;;;;;;;31.00;100.00;101345.88;5200177;28;20081;-82
2023/09/11 09:22:55;;;;;;;15.00;8.30;;;;;;;30.85;100.00;101355.97;5193082;28;20033;-82
2023/09/11 09:25:28;;;;;;;13.73;8.45;;;;;;;30.72;100.00;101344.72;5194104;28;20094;-81
2023/09/11 09:27:59;;;;;;;16.17;7.85;;;;;;;30.91;100.00;101340.13;5194202;28;20157;-82
2023/09/11 09:30:31;;;;;;;16.73;8.30;;;;;;;31.28;100.00;101342.31;5199144;28;20108;-82
2023/09/11 09:33:02;;;;;;;16.98;8.15;;;;;;;31.10;100.00;101341.06;5205167;28;20092;-82
2023/09/11 09:35:34;;;;;;;15.18;8.00;;;;;;;31.15;100.00;101343.78;5197213;28;20064;-82
2023/09/11 09:38:04;;;;;;;17.60;8.23;;;;;;;31.14;100.00;101342.13;5198045;28;20022;-83
2023/09/11 09:40:37;;;;;;;17.63;8.65;;;;;;;30.85;100.00;101333.81;5194877;28;20021;-82
2023/09/11 09:43:15;;;;;;;14.80;7.20;;;;;;;31.37;100.00;101342.47;5198998;28;20025;-82
2023/09/11 09:45:45;;;;;;;14.38;7.50;;;;;;;31.09;100.00;101349.66;5202846;28;20425;-81
2023/09/11 09:48:19;;;;;;;12.70;7.45;;;;;;;30.92;100.00;101353.69;5196394;28;20037;-82
2023/09/11 09:50:50;;;;;;;18.13;7.43;;;;;;;31.04;100.00;101341.41;5196654;28;20044;-81
2023/09/11 09:53:23;;;;;;;24.85;7.70;;;;;;;30.74;100.00;101335.03;5196431;28;20463;-82
2023/09/11 09:55:56;;;;;;;15.27;7.93;;;;;;;30.83;100.00;101346.31;5197673;28;20087;-81
2023/09/11 09:58:28;;;;;;;12.82;7.20;;;;;;;30.69;100.00;101335.03;5194214;28;20042;-81
2023/09/11 10:01:06;;;;;;;18.10;7.65;;;;;;;30.92;100.00;101328.75;5195932;28;20027;-81
2023/09/11 10:03:47;;;;;;;15.20;6.47;;;;;;;30.88;100.00;101330.47;5189674;28;20025;-82
2023/09/11 10:06:21;;;;;;;11.13;6.70;;;;;;;31.14;100.00;101335.75;5193395;28;20103;-81
2023/09/11 10:09:07;;;;;;;11.82;6.80;;;;;;;31.05;100.00;101327.25;5194692;28;20024;-82
2023/09/11 10:11:40;;;;;;;10.30;5.70;;;;;;;31.05;100.00;101327.25;5191001;28;20205;-82
2023/09/11 10:14:11;;;;;;;14.02;7.15;;;;;;;30.91;100.00;101329.03;5194180;28;20118;-81
2023/09/11 10:16:42;;;;;;;20.52;6.28;;;;;;;30.73;100.00;101335.31;5192308;28;20022;-82
2023/09/11 10:19:13;;;;;;;8.60;5.22;;;;;;;30.51;100.00;101327.41;5197328;28;20086;-81
2023/09/11 10:21:43;;;;;;;11.13;5.57;;;;;;;30.33;100.00;101323.41;5190984;28;20021;-81
2023/09/11 10:24:14;;;;;;;13.52;6.03;;;;;;;30.18;100.00;101322.38;5187219;28;20476;-82
2023/09/11 10:26:50;;;;;;;11.07;5.70;;;;;;;30.26;100.00;101320.13;5199550;28;20080;-81
2023/09/11 10:29:36;;;;;;;17.48;5.53;;;;;;;30.38;100.00;101318.66;5200934;28;20041;-82
2023/09/11 10:32:15;;;;;;;13.20;5.60;;;;;;;30.45;100.00;101318.31;5194701;28;20029;-81
2023/09/11 10:34:48;;;;;;;9.57;5.22;;;;;;;30.33;100.00;101315.09;5199204;28;20089;-81
2023/09/11 10:37:21;;;;;;;11.35;5.10;;;;;;;30.31;100.00;101315.38;5203444;28;20116;-81
2023/09/11 10:39:53;;;;;;;9.23;4.63;;;;;;;30.36;100.00;101314.50;5202883;28;20026;-82
2023/09/11 10:42:23;;;;;;;12.10;6.03;;;;;;;30.38;100.00;101313.13;5205117;28;20142;-82
2023/09/11 10:44:54;;;;;;;8.95;5.20;;;;;;;30.43;100.00;101310.31;5193731;28;20049;-82
2023/09/11 10:47:27;;;;;;;16.52;5.30;;;;;;;30.72;100.00;101309.53;5200952;28;20045;-82
2023/09/11 10:49:57;;;;;;;14.13;5.63;;;;;;;30.78;100.00;101313.13;5199300;28;20037;-81
2023/09/11 10:52:28;;;;;;;15.75;5.20;;;;;;;30.83;100.00;101307.53;5199474;28;20029;-82
2023/09/11 10:54:58;;;;;;;13.95;6.15;;;;;;;30.78;100.00;101319.47;5173543;28;20116;-82
2023/09/11 10:57:29;;;;;;;12.63;5.70;;;;;;;30.78;100.00;101310.34;5194444;28;20034;-84
2023/09/11 10:59:59;;;;;;;13.32;4.95;;;;;;;30.90;100.00;101310.78;5194129;28;20018;-84
2023/09/11 11:02:30;;;;;;;13.80;5.32;;;;;;;30.86;100.00;101309.69;5195897;28;20606;-83
2023/09/11 11:05:01;;;;;;;12.80;4.38;;;;;;;30.94;100.00;101303.53;5191576;28;20029;-84
2023/09/11 11:07:31;;;;;;;8.88;4.53;;;;;;;30.71;100.00;101302.34;5199172;28;20099;-84
2023/09/11 11:10:05;;;;;;;12.02;5.03;;;;;;;30.57;100.00;101299.38;5190759;28;20025;-84
2023/09/11 11:12:36;;;;;;;9.23;4.72;;;;;;;30.56;100.00;101300.50;5194098;28;20057;-84
2023/09/11 11:15:19;;;;;;;9.60;5.22;;;;;;;30.60;100.00;101303.53;5195048;28;20040;-84
2023/09/11 11:18:09;;;;;;;9.32;4.68;;;;;;;30.66;100.00;101296.84;5195194;28;20030;-84
2023/09/11 11:20:59;;;;;;;12.93;5.43;;;;;;;30.76;100.00;101298.72;5193227;28;20040;-83
2023/09/11 11:23:32;;;;;;;7.47;4.50;;;;;;;30.80;100.00;101299.78;5195707;28;20030;-84
2023/09/11 11:26:04;;;;;;;9.57;5.03;;;;;;;30.76;100.00;101295.94;5188205;28;20491;-84
2023/09/11 11:28:40;;;;;;;12.20;5.43;;;;;;;30.70;100.00;101295.16;5195026;28;20022;-84